Time;durP1;ratioP1;P1;durP2;ratioP2;P2;SDS_P1;SDS_P2;PMS_P1;PMS_P2;Temp;Humidity;BMP_temperature;BMP_pressure;BME280_temperature;BME280_humidity;BME280_pressure;Samples;Min_cycle;Max_cycle;Signal;HPM_P1;HPM_P2
2021/07/08 00:02:18;;;;;;;3.33;2.87;;;18.60;78.90;;;;;;5086523;28;20477;-43
2021/07/08 00:04:45;;;;;;;4.93;2.63;;;18.60;78.90;;;;;;5059359;28;20545;-44
2021/07/08 00:07:12;;;;;;;5.93;3.10;;;18.60;78.90;;;;;;5087555;28;20485;-43
2021/07/08 00:09:39;;;;;;;3.07;2.87;;;18.50;78.90;;;;;;5057571;28;20499;-44
2021/07/08 00:12:07;;;;;;;4.70;2.60;;;18.50;79.00;;;;;;5060839;28;20465;-44
2021/07/08 00:14:34;;;;;;;5.07;3.00;;;18.50;79.10;;;;;;5087881;28;20524;-43
2021/07/08 00:17:02;;;;;;;3.63;3.33;;;18.50;79.20;;;;;;5062573;28;20815;-43
2021/07/08 00:19:29;;;;;;;4.03;2.40;;;18.40;79.20;;;;;;5060075;28;20882;-43
2021/07/08 00:21:56;;;;;;;3.00;2.70;;;18.40;79.20;;;;;;5059550;28;20662;-43
2021/07/08 00:24:22;;;;;;;2.83;2.63;;;18.40;79.30;;;;;;5062686;28;20450;-43
2021/07/08 00:26:51;;;;;;;2.50;2.33;;;18.30;79.40;;;;;;5060116;28;20464;-43
2021/07/08 00:29:17;;;;;;;3.27;2.50;;;18.30;79.50;;;;;;5086443;28;20453;-43
2021/07/08 00:31:44;;;;;;;6.20;3.10;;;18.30;79.60;;;;;;5086264;28;20457;-44
2021/07/08 00:34:11;;;;;;;8.50;3.00;;;18.30;79.60;;;;;;5056601;28;20489;-43
2021/07/08 00:36:38;;;;;;;4.93;3.80;;;18.30;79.60;;;;;;5058526;28;20477;-43
2021/07/08 00:39:05;;;;;;;7.40;3.23;;;18.20;79.70;;;;;;5054316;28;20462;-43
2021/07/08 00:41:32;;;;;;;5.10;2.60;;;18.20;79.80;;;;;;5058027;28;20967;-43
2021/07/08 00:43:58;;;;;;;3.30;3.00;;;18.20;80.00;;;;;;5058838;28;20455;-43
2021/07/08 00:46:25;;;;;;;4.80;3.03;;;18.20;80.00;;;;;;5059157;28;20454;-43
2021/07/08 00:48:52;;;;;;;4.37;2.63;;;18.20;80.00;;;;;;5086536;28;20495;-43
2021/07/08 00:51:19;;;;;;;3.77;2.90;;;18.20;79.90;;;;;;5057230;28;20458;-43
2021/07/08 00:53:45;;;;;;;5.13;3.60;;;18.20;80.10;;;;;;5057794;28;20459;-43
2021/07/08 00:56:13;;;;;;;2.70;2.50;;;18.20;80.10;;;;;;5058004;28;20467;-43
2021/07/08 00:58:46;;;;;;;4.60;2.83;;;18.20;80.20;;;;;;5087686;28;20453;-43
2021/07/08 01:01:12;;;;;;;5.23;4.37;;;18.20;80.20;;;;;;5057435;28;20543;-43
2021/07/08 01:03:39;;;;;;;6.07;3.33;;;18.10;80.30;;;;;;5086775;28;20835;-43
2021/07/08 01:06:06;;;;;;;4.07;3.30;;;18.10;80.40;;;;;;5058748;28;21620;-44
2021/07/08 01:08:33;;;;;;;3.83;3.53;;;18.10;80.30;;;;;;5058018;28;20489;-44
2021/07/08 01:11:00;;;;;;;4.83;3.23;;;18.10;80.40;;;;;;5056534;28;20481;-44
2021/07/08 01:13:26;;;;;;;3.60;3.13;;;18.10;80.40;;;;;;5055758;28;20453;-43
2021/07/08 01:15:53;;;;;;;4.57;2.93;;;18.00;80.60;;;;;;5055713;28;20808;-43
2021/07/08 01:18:20;;;;;;;4.83;2.90;;;18.00;80.60;;;;;;5061261;28;20520;-44
2021/07/08 01:20:47;;;;;;;6.83;3.00;;;17.90;80.60;;;;;;5057352;28;20464;-43
2021/07/08 01:23:14;;;;;;;3.23;2.93;;;17.90;80.70;;;;;;5086910;28;20485;-44
2021/07/08 01:25:44;;;;;;;5.13;3.20;;;17.80;80.60;;;;;;5057858;28;20469;-43
2021/07/08 01:28:11;;;;;;;5.17;3.03;;;17.90;80.50;;;;;;5056250;28;20493;-43
2021/07/08 01:30:39;;;;;;;2.90;2.60;;;17.90;80.50;;;;;;5059306;28;20963;-44
2021/07/08 01:33:07;;;;;;;3.77;3.00;;;17.90;80.40;;;;;;5057439;28;20457;-43
2021/07/08 01:35:34;;;;;;;3.77;2.93;;;17.90;80.50;;;;;;5060919;28;20896;-43
2021/07/08 01:38:01;;;;;;;3.43;3.13;;;17.80;80.50;;;;;;5056388;28;20469;-43
2021/07/08 01:40:28;;;;;;;3.63;3.13;;;17.80;80.40;;;;;;5059264;28;20462;-43
2021/07/08 01:42:55;;;;;;;5.83;3.20;;;17.80;80.40;;;;;;5072932;28;20470;-43
2021/07/08 01:45:23;;;;;;;11.43;4.10;;;17.80;80.40;;;;;;5061529;28;20450;-44
2021/07/08 01:47:50;;;;;;;5.77;3.07;;;17.70;80.60;;;;;;5056879;28;20474;-44
2021/07/08 01:50:18;;;;;;;5.57;3.07;;;17.70;80.80;;;;;;5055764;28;20462;-44
2021/07/08 01:52:46;;;;;;;7.70;3.23;;;17.70;81.00;;;;;;5055581;28;20558;-44
2021/07/08 01:55:14;;;;;;;4.70;3.13;;;17.70;81.10;;;;;;5062867;28;20453;-44
2021/07/08 01:57:51;;;;;;;3.70;3.40;;;17.70;81.30;;;;;;5053384;28;20462;-43
2021/07/08 02:00:20;;;;;;;8.90;3.07;;;17.70;81.30;;;;;;5073974;28;20462;-43
2021/07/08 02:02:47;;;;;;;4.30;3.53;;;17.70;81.30;;;;;;5059991;28;20868;-43
2021/07/08 02:05:16;;;;;;;3.37;2.53;;;17.70;81.40;;;;;;5055334;28;20454;-43
2021/07/08 02:07:43;;;;;;;3.13;2.83;;;17.60;81.40;;;;;;5056859;28;20852;-43
2021/07/08 02:10:12;;;;;;;3.43;3.07;;;17.70;81.60;;;;;;5056036;28;20467;-43
2021/07/08 02:12:40;;;;;;;4.17;3.43;;;17.70;81.50;;;;;;5057027;28;20549;-43
2021/07/08 02:15:09;;;;;;;4.83;3.13;;;17.70;81.40;;;;;;5055263;28;20743;-44
2021/07/08 02:17:36;;;;;;;3.83;2.77;;;17.70;81.50;;;;;;5055215;28;20481;-44
2021/07/08 02:20:05;;;;;;;6.00;3.13;;;17.70;81.70;;;;;;5058427;28;20453;-44
2021/07/08 02:22:32;;;;;;;6.23;3.27;;;17.70;81.70;;;;;;5056758;28;20658;-44
2021/07/08 02:25:00;;;;;;;5.53;3.50;;;17.70;81.70;;;;;;5055383;28;20454;-43
2021/07/08 02:27:27;;;;;;;4.30;2.90;;;17.70;81.80;;;;;;5087796;28;20819;-43
2021/07/08 02:29:54;;;;;;;3.50;3.20;;;17.70;81.70;;;;;;5062518;28;20453;-43
2021/07/08 02:32:21;;;;;;;4.60;3.87;;;17.70;81.60;;;;;;5060278;28;20455;-43
2021/07/08 02:34:52;;;;;;;5.30;2.77;;;17.70;81.60;;;;;;5060090;28;20458;-44
2021/07/08 02:37:19;;;;;;;4.67;3.33;;;17.70;81.60;;;;;;5063292;28;20489;-44
2021/07/08 02:39:46;;;;;;;3.00;2.70;;;17.70;81.50;;;;;;5059338;28;20955;-44
2021/07/08 02:42:13;;;;;;;4.27;2.43;;;17.80;81.20;;;;;;5056808;28;20488;-43
2021/07/08 02:44:39;;;;;;;4.87;3.30;;;17.80;81.20;;;;;;5054382;28;20956;-43
2021/07/08 02:47:06;;;;;;;4.00;2.80;;;17.70;81.40;;;;;;5057791;28;20469;-43
2021/07/08 02:49:33;;;;;;;4.60;3.53;;;17.70;81.30;;;;;;5062308;28;20493;-43
2021/07/08 02:52:00;;;;;;;5.17;2.93;;;17.70;81.30;;;;;;5088460;28;20484;-43
2021/07/08 02:54:29;;;;;;;4.77;2.80;;;17.70;81.20;;;;;;5055511;28;20457;-43
2021/07/08 02:56:55;;;;;;;6.13;3.17;;;17.70;81.00;;;;;;5064740;28;20967;-42
2021/07/08 02:59:22;;;;;;;9.63;2.90;;;17.70;81.00;;;;;;5058114;28;20512;-42
2021/07/08 03:01:49;;;;;;;6.67;2.70;;;17.70;81.00;;;;;;5062336;28;20465;-42
2021/07/08 03:04:15;;;;;;;3.00;2.70;;;17.70;81.10;;;;;;5064860;28;20473;-42
2021/07/08 03:06:42;;;;;;;3.40;3.07;;;17.70;81.20;;;;;;5064559;28;21037;-42
2021/07/08 03:09:09;;;;;;;6.10;3.70;;;17.70;81.30;;;;;;5059872;28;20481;-42
2021/07/08 03:11:36;;;;;;;4.20;3.50;;;17.70;81.40;;;;;;5066341;28;20845;-42
2021/07/08 03:14:02;;;;;;;3.77;3.30;;;17.70;81.50;;;;;;5062045;28;20446;-42
2021/07/08 03:16:30;;;;;;;8.03;3.20;;;17.70;81.70;;;;;;5063687;28;20443;-42
2021/07/08 03:18:57;;;;;;;9.60;3.30;;;17.60;81.70;;;;;;5060759;28;20557;-42
2021/07/08 03:21:23;;;;;;;6.80;3.43;;;17.60;81.80;;;;;;5061681;28;20981;-42
2021/07/08 03:23:50;;;;;;;5.63;3.83;;;17.70;81.90;;;;;;5062923;28;20640;-42
2021/07/08 03:26:17;;;;;;;9.13;3.47;;;17.60;81.90;;;;;;5062396;28;20458;-42
2021/07/08 03:28:44;;;;;;;5.13;3.10;;;17.70;81.90;;;;;;5067217;28;20489;-42
2021/07/08 03:31:10;;;;;;;5.87;3.20;;;17.70;82.00;;;;;;5063217;28;20859;-42
2021/07/08 03:33:37;;;;;;;5.97;3.23;;;17.70;81.90;;;;;;5060089;28;20469;-42
2021/07/08 03:36:05;;;;;;;8.20;3.37;;;17.80;81.70;;;;;;5064623;28;20544;-42
2021/07/08 03:38:32;;;;;;;5.30;3.50;;;17.70;81.90;;;;;;5060901;28;20901;-42
2021/07/08 03:40:59;;;;;;;3.07;2.77;;;17.70;81.90;;;;;;5064204;28;20466;-42
2021/07/08 03:43:25;;;;;;;5.10;3.60;;;17.70;82.00;;;;;;5063056;28;20987;-42
2021/07/08 03:45:53;;;;;;;6.73;3.40;;;17.70;82.00;;;;;;5062010;28;20477;-42
2021/07/08 03:48:20;;;;;;;6.60;5.00;;;17.70;82.10;;;;;;5062459;28;20944;-42
2021/07/08 03:50:47;;;;;;;4.57;3.60;;;17.70;82.10;;;;;;5089879;28;21013;-42
2021/07/08 03:53:13;;;;;;;5.60;3.43;;;17.70;82.10;;;;;;5061939;28;20457;-42
2021/07/08 03:55:40;;;;;;;7.63;3.20;;;17.70;82.10;;;;;;5060692;28;20461;-42
2021/07/08 03:58:07;;;;;;;3.77;3.37;;;17.70;82.20;;;;;;5060899;28;20466;-42
2021/07/08 04:00:38;;;;;;;6.90;3.07;;;17.70;82.30;;;;;;5060104;28;21156;-42
2021/07/08 04:03:11;;;;;;;4.00;3.60;;;17.70;82.30;;;;;;5060895;28;20465;-42
2021/07/08 04:05:39;;;;;;;5.00;4.17;;;17.60;82.30;;;;;;5059698;28;20770;-42
2021/07/08 04:08:07;;;;;;;8.30;3.30;;;17.60;82.40;;;;;;5064186;28;20964;-42
2021/07/08 04:10:36;;;;;;;6.00;4.17;;;17.70;82.50;;;;;;5058530;28;20454;-42
2021/07/08 04:13:05;;;;;;;7.00;3.37;;;17.70;82.70;;;;;;5059364;28;20462;-42
2021/07/08 04:15:32;;;;;;;4.30;3.60;;;17.70;82.80;;;;;;5062049;28;20461;-42
2021/07/08 04:17:59;;;;;;;3.70;3.33;;;17.70;82.80;;;;;;5056388;28;20482;-42
2021/07/08 04:20:27;;;;;;;9.20;3.80;;;17.70;82.70;;;;;;5057167;28;20450;-42
2021/07/08 04:22:54;;;;;;;5.40;3.97;;;17.70;82.80;;;;;;5087314;28;20928;-42
2021/07/08 04:25:21;;;;;;;4.23;3.50;;;17.70;83.00;;;;;;5058492;28;20469;-42
2021/07/08 04:27:49;;;;;;;5.60;3.30;;;17.70;83.10;;;;;;5086849;28;21048;-42
2021/07/08 04:30:19;;;;;;;3.93;3.40;;;17.70;83.20;;;;;;5054231;28;21236;-42
2021/07/08 04:32:46;;;;;;;3.50;3.20;;;17.80;83.00;;;;;;5058121;28;20463;-42
2021/07/08 04:35:19;;;;;;;7.70;4.00;;;17.80;82.70;;;;;;5059589;28;20454;-42
2021/07/08 04:37:49;;;;;;;3.87;3.17;;;17.80;82.70;;;;;;5054353;28;20460;-42
2021/07/08 04:40:19;;;;;;;4.20;3.80;;;17.80;82.90;;;;;;5059291;28;20459;-42
2021/07/08 04:42:47;;;;;;;9.23;3.50;;;17.80;83.00;;;;;;5058305;28;20967;-42
2021/07/08 04:45:15;;;;;;;3.23;2.83;;;17.80;83.10;;;;;;5057107;28;20459;-42
2021/07/08 04:47:43;;;;;;;4.97;3.80;;;17.80;83.10;;;;;;5057226;28;20950;-42
2021/07/08 04:50:16;;;;;;;3.70;3.33;;;17.90;83.10;;;;;;5055726;28;20501;-42
2021/07/08 04:52:44;;;;;;;5.17;4.03;;;17.90;83.10;;;;;;5058733;28;20450;-42
2021/07/08 04:55:13;;;;;;;5.57;3.80;;;17.90;83.10;;;;;;5058590;28;20791;-42
2021/07/08 04:57:40;;;;;;;4.93;4.10;;;17.90;83.10;;;;;;5059181;28;20466;-42
2021/07/08 05:00:10;;;;;;;5.50;4.30;;;18.00;83.10;;;;;;5057921;28;20973;-42
2021/07/08 05:02:38;;;;;;;6.73;3.47;;;18.00;83.20;;;;;;5058213;28;20459;-42
2021/07/08 05:05:10;;;;;;;7.90;4.20;;;18.00;83.20;;;;;;5062024;28;20458;-42
2021/07/08 05:07:38;;;;;;;7.37;3.80;;;18.00;83.10;;;;;;5062359;28;20477;-42
2021/07/08 05:10:07;;;;;;;9.47;4.00;;;18.10;83.00;;;;;;5058253;28;20856;-42
2021/07/08 05:12:34;;;;;;;8.07;3.63;;;18.10;82.90;;;;;;5060182;28;20487;-42
2021/07/08 05:15:05;;;;;;;5.40;3.80;;;18.10;83.00;;;;;;5060937;28;20879;-42
2021/07/08 05:17:32;;;;;;;6.00;4.30;;;18.10;82.90;;;;;;5062884;28;20472;-43
2021/07/08 05:19:59;;;;;;;6.17;3.70;;;18.10;82.90;;;;;;5060996;28;20722;-42
2021/07/08 05:22:26;;;;;;;4.60;3.73;;;18.10;83.10;;;;;;5060132;28;20461;-42
2021/07/08 05:24:53;;;;;;;5.43;3.90;;;18.20;83.00;;;;;;5055997;28;20459;-42
2021/07/08 05:27:20;;;;;;;4.27;3.60;;;18.20;82.90;;;;;;5088768;28;20461;-42
2021/07/08 05:29:48;;;;;;;5.43;3.70;;;18.20;83.00;;;;;;5059098;28;20844;-42
2021/07/08 05:32:15;;;;;;;3.53;3.20;;;18.20;82.90;;;;;;5060156;28;20990;-42
2021/07/08 05:34:42;;;;;;;4.57;3.87;;;18.20;82.80;;;;;;5058489;28;20480;-42
2021/07/08 05:37:09;;;;;;;7.37;3.83;;;18.20;82.70;;;;;;5057089;28;20458;-42
2021/07/08 05:39:37;;;;;;;6.10;3.40;;;18.30;82.70;;;;;;5057232;28;20470;-42
2021/07/08 05:42:04;;;;;;;6.47;3.50;;;18.30;82.60;;;;;;5057124;28;20489;-42
2021/07/08 05:44:32;;;;;;;8.83;3.97;;;18.30;82.70;;;;;;5056667;28;20466;-42
2021/07/08 05:46:59;;;;;;;8.63;3.77;;;18.30;82.70;;;;;;5058349;28;20460;-42
2021/07/08 05:49:46;;;;;;;6.03;4.10;;;18.30;82.60;;;;;;5059142;28;20478;-42
2021/07/08 05:52:17;;;;;;;3.87;3.47;;;18.30;82.40;;;;;;5056277;28;20508;-42
2021/07/08 05:54:43;;;;;;;6.80;3.80;;;18.40;82.50;;;;;;5064282;28;20453;-42
2021/07/08 05:57:10;;;;;;;6.33;3.80;;;18.40;82.50;;;;;;5060145;28;20439;-42
2021/07/08 05:59:37;;;;;;;9.00;3.83;;;18.40;82.30;;;;;;5059822;28;20461;-42
2021/07/08 06:02:04;;;;;;;4.80;3.90;;;18.40;82.30;;;;;;5057198;28;20465;-42
2021/07/08 06:04:31;;;;;;;9.70;4.50;;;18.40;82.30;;;;;;5059509;28;20465;-42
2021/07/08 06:06:57;;;;;;;4.60;3.63;;;18.40;82.30;;;;;;5058590;28;20466;-42
2021/07/08 06:09:24;;;;;;;5.00;3.97;;;18.50;82.10;;;;;;5058544;28;20844;-42
2021/07/08 06:11:51;;;;;;;4.93;3.30;;;18.50;82.10;;;;;;5059668;28;20860;-42
2021/07/08 06:14:18;;;;;;;5.70;3.67;;;18.60;82.00;;;;;;5058156;28;20461;-42
2021/07/08 06:16:44;;;;;;;4.53;3.60;;;18.60;81.90;;;;;;5056332;28;20965;-43
2021/07/08 06:19:11;;;;;;;4.10;3.17;;;18.60;81.80;;;;;;5085161;28;20525;-42
2021/07/08 06:21:38;;;;;;;7.17;3.70;;;18.60;81.80;;;;;;5058044;28;20975;-42
2021/07/08 06:24:07;;;;;;;4.10;3.70;;;18.60;81.90;;;;;;5058761;28;20469;-42
2021/07/08 06:26:35;;;;;;;4.70;4.20;;;18.60;81.90;;;;;;5084585;28;20456;-43
2021/07/08 06:29:02;;;;;;;7.60;3.37;;;18.60;81.80;;;;;;5057869;28;20998;-43
2021/07/08 06:31:29;;;;;;;6.37;3.93;;;18.60;81.90;;;;;;5060042;28;20457;-42
2021/07/08 06:33:56;;;;;;;4.17;3.40;;;18.70;82.00;;;;;;5061402;28;20486;-42
2021/07/08 06:36:23;;;;;;;8.43;4.40;;;18.70;82.10;;;;;;5064150;28;20462;-42
2021/07/08 06:38:50;;;;;;;10.20;4.53;;;18.80;82.10;;;;;;5062690;28;20458;-42
2021/07/08 06:41:16;;;;;;;9.17;5.13;;;18.80;81.90;;;;;;5068295;28;20485;-42
2021/07/08 06:44:04;;;;;;;7.30;4.63;;;18.90;81.80;;;;;;5062910;28;20477;-42
2021/07/08 06:46:31;;;;;;;7.63;4.50;;;18.90;81.70;;;;;;5064179;28;20833;-42
2021/07/08 06:48:59;;;;;;;9.97;4.40;;;19.00;81.10;;;;;;5063618;28;20482;-42
2021/07/08 06:51:30;;;;;;;7.50;4.57;;;19.00;80.50;;;;;;5068724;28;20461;-43
2021/07/08 06:53:57;;;;;;;5.93;3.97;;;19.10;80.40;;;;;;5062654;28;20449;-43
2021/07/08 06:56:24;;;;;;;7.00;4.27;;;19.10;80.30;;;;;;5068202;28;20450;-44
2021/07/08 06:58:51;;;;;;;6.77;3.87;;;19.10;80.30;;;;;;5061749;28;20468;-43
2021/07/08 07:01:21;;;;;;;8.50;3.50;;;19.10;80.30;;;;;;5061714;28;20536;-43
2021/07/08 07:03:48;;;;;;;7.30;4.93;;;19.20;80.10;;;;;;5062093;28;20708;-43
2021/07/08 07:06:15;;;;;;;9.40;4.07;;;19.20;80.20;;;;;;5061849;28;20464;-43
2021/07/08 07:08:46;;;;;;;6.67;3.97;;;19.20;80.20;;;;;;5092382;28;20470;-43
2021/07/08 07:11:13;;;;;;;5.87;4.50;;;19.20;80.30;;;;;;5062956;28;20831;-43
2021/07/08 07:13:39;;;;;;;8.70;4.63;;;19.20;80.40;;;;;;5060674;28;20821;-43
2021/07/08 07:16:06;;;;;;;5.80;4.30;;;19.30;80.60;;;;;;5064347;28;20453;-43
2021/07/08 07:18:38;;;;;;;9.97;4.63;;;19.30;80.60;;;;;;5062218;28;20507;-43
2021/07/08 07:21:11;;;;;;;5.20;4.00;;;19.30;80.40;;;;;;5061162;28;20492;-43
2021/07/08 07:23:39;;;;;;;8.87;3.77;;;19.40;80.20;;;;;;5064093;28;20470;-43
2021/07/08 07:26:06;;;;;;;6.70;4.50;;;19.40;79.80;;;;;;5063303;28;20535;-43
2021/07/08 07:28:33;;;;;;;8.70;3.80;;;19.50;79.00;;;;;;5062830;28;20454;-43
2021/07/08 07:31:00;;;;;;;9.40;4.67;;;19.60;78.90;;;;;;5061253;28;20473;-43
2021/07/08 07:33:27;;;;;;;6.00;3.87;;;19.60;78.90;;;;;;5061454;28;20544;-43
2021/07/08 07:35:54;;;;;;;8.20;4.83;;;19.70;78.80;;;;;;5059664;28;20822;-43
2021/07/08 07:38:21;;;;;;;8.50;3.87;;;19.70;78.50;;;;;;5067192;28;20464;-43
2021/07/08 07:40:48;;;;;;;6.43;4.30;;;19.90;78.30;;;;;;5068466;28;20450;-43
2021/07/08 07:43:15;;;;;;;10.80;4.63;;;19.90;78.10;;;;;;5066533;28;20466;-43
2021/07/08 07:45:42;;;;;;;12.87;5.77;;;20.00;78.00;;;;;;5067608;28;21006;-43
2021/07/08 07:48:09;;;;;;;7.40;4.57;;;20.10;77.80;;;;;;5060103;28;20462;-43
2021/07/08 07:50:36;;;;;;;6.53;5.60;;;20.20;77.30;;;;;;5060557;28;20492;-43
2021/07/08 07:53:04;;;;;;;7.40;4.50;;;20.30;77.60;;;;;;5088139;28;20819;-43
2021/07/08 07:55:31;;;;;;;10.90;5.47;;;20.50;77.60;;;;;;5059604;28;20458;-43
2021/07/08 07:58:00;;;;;;;7.80;5.00;;;20.50;77.30;;;;;;5058954;28;20466;-43
2021/07/08 08:00:28;;;;;;;9.50;5.20;;;20.60;76.30;;;;;;5056485;28;20459;-44
2021/07/08 08:02:56;;;;;;;13.40;5.00;;;20.70;76.30;;;;;;5054696;28;20469;-44
2021/07/08 08:10:48;;;;;;;6.90;5.40;;;21.60;75.10;;;;;;5052887;28;20497;-44
2021/07/08 08:13:15;;;;;;;5.60;4.10;;;22.00;74.90;;;;;;5058559;28;20449;-44
2021/07/08 08:15:45;;;;;;;8.90;4.40;;;22.30;73.80;;;;;;5058635;28;20464;-44
2021/07/08 08:18:12;;;;;;;6.90;5.20;;;22.60;72.60;;;;;;5057390;28;20481;-44
2021/07/08 08:20:40;;;;;;;7.63;4.03;;;22.80;71.10;;;;;;5057470;28;20963;-44
2021/07/08 08:23:06;;;;;;;4.00;3.40;;;23.00;70.70;;;;;;5056822;28;20466;-44
2021/07/08 08:25:33;;;;;;;6.23;3.83;;;23.10;71.00;;;;;;5056532;28;20457;-44
2021/07/08 08:28:00;;;;;;;6.80;4.00;;;23.30;70.30;;;;;;5057824;28;20577;-44
2021/07/08 08:30:28;;;;;;;9.50;4.10;;;23.40;70.50;;;;;;5059176;28;20486;-43
2021/07/08 08:32:55;;;;;;;6.60;3.73;;;23.60;69.80;;;;;;5058690;28;20453;-43
2021/07/08 08:35:22;;;;;;;5.03;3.40;;;23.60;69.20;;;;;;5058922;28;20483;-43
2021/07/08 08:37:49;;;;;;;4.10;3.10;;;23.70;68.90;;;;;;5057020;28;20451;-43
2021/07/08 08:40:17;;;;;;;6.60;4.10;;;23.70;68.70;;;;;;5059682;28;20549;-43
2021/07/08 08:42:45;;;;;;;7.90;2.90;;;23.60;68.10;;;;;;5058509;28;20461;-43
2021/07/08 08:45:15;;;;;;;11.80;3.40;;;23.60;68.10;;;;;;5057557;28;20446;-43
2021/07/08 08:48:11;;;;;;;5.50;3.53;;;23.50;68.00;;;;;;5060217;28;20449;-43
2021/07/08 08:50:41;;;;;;;5.43;2.60;;;23.50;68.90;;;;;;5053576;28;21005;-43
2021/07/08 08:53:09;;;;;;;6.17;3.47;;;23.40;69.40;;;;;;5053014;28;20935;-42
2021/07/08 08:55:37;;;;;;;6.20;3.73;;;23.40;69.90;;;;;;5058803;28;20453;-43
2021/07/08 08:58:25;;;;;;;6.57;2.80;;;23.30;70.00;;;;;;5057940;28;20977;-42
2021/07/08 09:00:53;;;;;;;2.43;2.23;;;23.20;70.40;;;;;;5054195;28;20466;-43
2021/07/08 09:03:25;;;;;;;4.63;2.93;;;23.20;70.60;;;;;;5057149;28;20465;-42
2021/07/08 09:06:10;;;;;;;2.67;2.10;;;23.20;70.70;;;;;;5085995;28;21052;-43
2021/07/08 09:08:39;;;;;;;5.77;2.83;;;23.10;70.00;;;;;;5084736;28;20463;-43
2021/07/08 09:11:09;;;;;;;3.57;3.23;;;23.10;69.60;;;;;;5055202;28;20481;-43
2021/07/08 09:13:51;;;;;;;4.60;2.83;;;23.10;69.50;;;;;;5058509;28;20429;-43
2021/07/08 09:16:21;;;;;;;4.47;2.60;;;23.20;69.30;;;;;;5054182;28;20462;-42
2021/07/08 09:19:07;;;;;;;2.53;2.33;;;23.20;69.50;;;;;;5057885;28;20858;-42
2021/07/08 09:21:45;;;;;;;3.13;2.50;;;23.30;69.60;;;;;;5058827;28;20489;-42
2021/07/08 09:24:34;;;;;;;2.73;2.53;;;23.40;69.10;;;;;;5061016;28;20479;-43
2021/07/08 09:27:03;;;;;;;9.70;4.23;;;23.40;69.40;;;;;;5055452;28;20453;-43
2021/07/08 09:29:35;;;;;;;5.77;3.90;;;23.50;68.80;;;;;;5055349;28;20963;-43
2021/07/08 09:32:05;;;;;;;3.03;2.73;;;23.50;68.50;;;;;;5059809;28;20449;-43
2021/07/08 09:34:33;;;;;;;7.37;2.70;;;23.60;68.20;;;;;;5057723;28;20458;-43
2021/07/08 09:37:04;;;;;;;4.43;2.63;;;23.60;68.20;;;;;;5056587;28;20975;-43
2021/07/08 09:39:40;;;;;;;3.63;2.83;;;23.70;68.00;;;;;;5061851;28;20441;-43
2021/07/08 09:42:08;;;;;;;7.73;2.63;;;23.80;67.60;;;;;;5059148;28;20895;-43
2021/07/08 09:44:35;;;;;;;4.17;2.37;;;23.80;68.00;;;;;;5087890;28;20913;-43
2021/07/08 09:47:03;;;;;;;5.90;3.50;;;23.90;69.10;;;;;;5058682;28;20565;-44
2021/07/08 09:49:30;;;;;;;4.87;3.27;;;23.90;69.00;;;;;;5059328;28;20877;-43
2021/07/08 09:51:57;;;;;;;8.37;4.33;;;24.00;68.30;;;;;;5060111;28;20450;-43
2021/07/08 09:57:34;;;;;;;4.63;2.90;;;24.10;67.50;;;;;;5058696;28;21234;-43
2021/07/08 10:00:24;;;;;;;8.00;3.07;;;24.10;67.30;;;;;;5059801;28;20459;-43
2021/07/08 10:02:54;;;;;;;4.10;3.10;;;24.10;66.80;;;;;;5061953;28;20465;-42
2021/07/08 10:05:24;;;;;;;5.53;2.67;;;24.10;66.90;;;;;;5057997;28;20446;-43
2021/07/08 10:07:52;;;;;;;5.23;3.10;;;24.10;66.60;;;;;;5055974;28;20453;-43
2021/07/08 10:10:19;;;;;;;3.00;2.57;;;24.10;66.70;;;;;;5054995;28;21177;-43
2021/07/08 10:12:47;;;;;;;3.80;2.70;;;24.10;66.90;;;;;;5085825;28;20458;-43
2021/07/08 10:15:15;;;;;;;3.70;3.27;;;24.00;67.10;;;;;;5059204;28;20444;-43
2021/07/08 10:17:43;;;;;;;4.97;3.33;;;24.00;66.60;;;;;;5058219;28;21071;-43
2021/07/08 10:20:13;;;;;;;7.67;3.60;;;24.10;66.40;;;;;;5059521;28;20810;-43
2021/07/08 10:22:40;;;;;;;4.50;3.90;;;24.10;66.50;;;;;;5056752;28;20494;-43
2021/07/08 10:25:12;;;;;;;4.73;3.23;;;24.10;66.80;;;;;;5057837;28;20484;-43
2021/07/08 10:27:43;;;;;;;4.87;3.70;;;24.20;66.20;;;;;;5059180;28;20534;-43
2021/07/08 10:30:11;;;;;;;5.20;4.03;;;24.20;66.60;;;;;;5055940;28;20486;-43
2021/07/08 10:32:38;;;;;;;6.43;3.90;;;24.20;67.10;;;;;;5055729;28;20468;-43
2021/07/08 10:35:06;;;;;;;4.83;3.97;;;24.10;67.30;;;;;;5055246;28;20465;-43
2021/07/08 10:37:39;;;;;;;4.83;3.90;;;24.10;66.00;;;;;;5054782;28;20454;-43
2021/07/08 10:40:28;;;;;;;8.77;4.17;;;24.10;65.30;;;;;;5083074;28;20449;-43
2021/07/08 10:42:55;;;;;;;5.20;3.43;;;24.10;65.00;;;;;;5057835;28;20858;-43
2021/07/08 10:45:24;;;;;;;7.13;4.20;;;24.10;65.30;;;;;;5057987;28;20464;-43
2021/07/08 10:48:20;;;;;;;4.90;3.63;;;24.10;65.50;;;;;;5085658;28;20462;-43
2021/07/08 10:50:47;;;;;;;5.70;3.40;;;24.10;65.40;;;;;;5062501;28;20591;-43
2021/07/08 10:53:31;;;;;;;5.43;3.50;;;24.10;65.60;;;;;;5060451;28;20465;-44
2021/07/08 10:56:00;;;;;;;5.47;3.20;;;24.20;65.80;;;;;;5059024;28;20946;-43
2021/07/08 10:58:45;;;;;;;4.07;3.27;;;24.30;65.50;;;;;;5057863;28;20510;-43
2021/07/08 11:01:23;;;;;;;6.83;3.50;;;24.30;64.80;;;;;;5059322;28;20468;-43
2021/07/08 11:03:51;;;;;;;8.50;3.63;;;24.30;64.60;;;;;;5055663;28;20450;-43
2021/07/08 11:06:47;;;;;;;4.33;3.20;;;24.30;64.90;;;;;;5057408;28;20541;-43
2021/07/08 11:09:17;;;;;;;4.17;3.07;;;24.30;64.60;;;;;;5048622;28;21027;-43
2021/07/08 11:11:48;;;;;;;6.00;3.20;;;24.30;64.70;;;;;;5055811;28;20488;-43
2021/07/08 11:14:23;;;;;;;3.53;3.23;;;24.30;64.80;;;;;;5055610;28;20968;-44
2021/07/08 11:16:53;;;;;;;3.50;3.20;;;24.30;64.80;;;;;;5053015;28;20457;-45
2021/07/08 11:19:20;;;;;;;3.20;2.87;;;24.30;65.20;;;;;;5056197;28;20474;-42
2021/07/08 11:21:52;;;;;;;5.27;2.90;;;24.40;65.80;;;;;;5061277;28;20467;-43
2021/07/08 11:24:38;;;;;;;3.37;2.60;;;24.40;65.80;;;;;;5059856;28;20807;-43
2021/07/08 11:27:10;;;;;;;2.87;2.40;;;24.40;65.50;;;;;;5058237;28;20472;-43
2021/07/08 11:29:39;;;;;;;3.93;2.23;;;24.40;65.10;;;;;;5059429;28;20458;-43
2021/07/08 11:32:31;;;;;;;2.23;1.97;;;24.40;64.30;;;;;;5088061;28;20492;-43
2021/07/08 11:35:17;;;;;;;2.53;2.33;;;24.30;63.80;;;;;;5087558;28;20471;-43
2021/07/08 11:38:02;;;;;;;2.37;2.07;;;24.30;63.70;;;;;;5059743;28;20456;-43
2021/07/08 11:40:39;;;;;;;1.70;1.60;;;24.30;63.60;;;;;;5058675;28;20466;-43
2021/07/08 11:43:29;;;;;;;1.90;1.73;;;24.20;63.50;;;;;;5058586;28;20461;-43
2021/07/08 11:46:04;;;;;;;1.90;1.80;;;24.20;63.40;;;;;;5057250;28;20465;-43
2021/07/08 11:48:34;;;;;;;2.20;1.50;;;24.20;63.50;;;;;;5056836;28;20574;-43
2021/07/08 11:51:22;;;;;;;2.20;1.87;;;24.20;63.50;;;;;;5056354;28;20488;-43
2021/07/08 11:53:50;;;;;;;3.10;2.40;;;24.20;63.70;;;;;;5062232;28;20958;-44
2021/07/08 11:56:19;;;;;;;2.07;1.90;;;24.20;63.80;;;;;;5070239;28;20461;-44
2021/07/08 11:58:46;;;;;;;1.67;1.57;;;24.10;64.00;;;;;;5056465;28;20452;-44
2021/07/08 12:01:21;;;;;;;2.20;2.00;;;24.20;64.50;;;;;;5055384;28;20548;-44
2021/07/08 12:03:54;;;;;;;3.97;2.07;;;24.20;65.00;;;;;;5061351;28;20503;-44
2021/07/08 12:06:24;;;;;;;2.30;2.10;;;24.10;65.10;;;;;;5057903;28;20483;-44
2021/07/08 12:08:57;;;;;;;4.40;2.03;;;24.10;64.90;;;;;;5058569;28;20462;-44
2021/07/08 12:11:28;;;;;;;3.07;2.30;;;24.10;64.60;;;;;;5056855;28;20482;-43
2021/07/08 12:14:09;;;;;;;2.80;2.30;;;24.10;64.60;;;;;;5056114;28;20458;-43
2021/07/08 12:16:44;;;;;;;2.83;2.60;;;24.00;65.00;;;;;;5057790;28;20840;-43
2021/07/08 12:19:14;;;;;;;2.57;2.37;;;24.10;65.50;;;;;;5053628;28;20485;-43
2021/07/08 12:21:43;;;;;;;2.70;2.50;;;24.00;65.60;;;;;;5053553;28;20467;-44
2021/07/08 12:24:18;;;;;;;5.60;3.17;;;23.80;66.20;;;;;;5056318;28;20469;-43
2021/07/08 12:26:46;;;;;;;4.50;2.73;;;23.80;66.60;;;;;;5060970;28;20471;-43
2021/07/08 12:29:27;;;;;;;6.93;2.60;;;23.80;67.30;;;;;;5059045;28;21035;-44
2021/07/08 12:32:19;;;;;;;2.10;2.00;;;23.80;67.80;;;;;;5058279;28;20846;-44
2021/07/08 12:34:51;;;;;;;3.10;2.30;;;23.70;68.30;;;;;;5088952;28;20483;-44
2021/07/08 12:37:22;;;;;;;3.67;2.70;;;23.70;68.80;;;;;;5062633;28;20464;-44
2021/07/08 12:39:54;;;;;;;3.17;2.90;;;23.70;69.70;;;;;;5058345;28;20840;-44
2021/07/08 12:42:23;;;;;;;4.33;2.70;;;23.60;70.20;;;;;;5057750;28;20811;-44
2021/07/08 12:44:53;;;;;;;3.30;2.40;;;23.60;70.10;;;;;;5060062;28;21000;-44
2021/07/08 12:47:21;;;;;;;2.50;2.30;;;23.60;71.00;;;;;;5059910;28;20471;-44
2021/07/08 12:49:50;;;;;;;5.13;2.73;;;23.60;71.40;;;;;;5059418;28;20947;-44
2021/07/08 12:52:18;;;;;;;2.57;2.37;;;23.60;71.50;;;;;;5056822;28;21004;-44
2021/07/08 12:54:46;;;;;;;2.80;2.30;;;23.60;72.10;;;;;;5056752;28;20467;-44
2021/07/08 12:57:15;;;;;;;5.67;2.80;;;23.60;72.00;;;;;;5059804;28;20462;-44
2021/07/08 12:59:57;;;;;;;3.57;2.77;;;23.60;73.10;;;;;;5054979;28;20961;-44
2021/07/08 13:02:29;;;;;;;3.67;2.60;;;23.60;73.80;;;;;;5057114;28;20465;-44
2021/07/08 13:05:04;;;;;;;5.50;3.00;;;23.50;74.20;;;;;;5057270;28;20462;-44
2021/07/08 13:07:33;;;;;;;4.10;3.60;;;23.40;74.90;;;;;;5056218;28;20803;-44